Clemson, SC (29631)

8:54 AM EDT on September 05, 2015 (GMT -0400)
CU Ent Dept | | Change Station
CLOSE
Current Station
Personal Weather Station
Location: Clemson, SC
Elevation: 842 ft
Nearby Weather Stations

Elev 842 ft 34.68 °N, 82.83 °W | Updated 48 seconds ago

Clear
Clear
75.0 °F
Feels Like 76 °F
N
0.0
Wind Variable Wind from NE
Gusts 6.0 mph

Today
High -- | Low -- °F
--% Chance of Precip.
Yesterday
High -- | Low -- °F
Precip. -- in
7:06 AM 7:52 PM
Waning Gibbous, 49% visible
Pressure 30.12 in
Visibility 10.0 miles
Clouds Clear
Heat Index 76 °F
Dew Point 67 °F
Humidity 75%
Rainfall 0.00 in
Snow Depth Not available.
UV 0 out of 12
Pollen 8.20 out of 12
Air Quality Not available.
Flu Activity Not available.
METAR KCEU 051154Z AUTO 04007KT 10SM CLR 22/18 A3016 RMK AO2 SLP200 T02220178 10233 20206 53015
Pressure 30.12 in
Visibility 10.0 miles
Clouds Clear
Heat Index 76 °F
Dew Point 67 °F
Humidity 75%
Rainfall 0.00 in
Snow Depth Not available.
UV 0 out of 12
Pollen 8.20 out of 12
Air Quality Not available.
Flu Activity Not available.
METAR KCEU 051154Z AUTO 04007KT 10SM CLR 22/18 A3016 RMK AO2 SLP200 T02220178 10233 20206 53015

10-Day Weather Forecast

×

Almanac

Astronomy

Sep. 05, 2015 Rise Set
Actual Time
Civil Twilight
Nautical Twilight
Astronomical Twilight
Moon
Length of Visible Light
Length of Day
Tomorrow will be .
, % of the Moon is Illuminated

Today's Extremes

State Highs State Lows

Community

WunderPhotos

Upload Photos

1,852,454 photos uploaded!

WunderBlogs® & News

Nearby

Air Quality

  Air Quality AQ Index Pollutant
Not available.

Snow Depth

Station Depth Elevation

Earthquake Activity

City Distance Mag. Time & Date
Minimum magnitude displayed is 2.5.

Coastal Water Temperatures

Place Temperature

Stations

Nearby Weather Stations

Station Location Temp. Windchill Dew Point Humidity Wind Precip. Elev Updated Type